Lackey, Virginia
Current Conditions -  °F | °C
As of 5:20 AM on Tuesday 27 Jan 2015 (Local Time) from KPHF Reporting Station
Light Snow Light Snow  
Wind Chill: 26°   Ceiling: 1500
Heat Index: 32°   Visibility: 2mi
Dew Point: 27°   Wind: 7mph
Humidity: 82%   Direction: 340°NNW
Pressure: 29.7"   Gusts: NA
Location:  37.23°N, 76.55°W
Report Text: KPHF 271020Z 34006KT 2SM -SN SCT009 OVC015 00/M03 A2970 RMK AO2 P0000 T00001028
Loading
Personal Weather Stations






























Interactive Weather Map New forecast layout! Learn more

10-Day Weather Forecast

Advertisements
Track Severe Weather on mobile